sensor_id;sensor_type;location;lat;lon;timestamp;pressure;altitude;pressure_sealevel;temperature;humidity
15674;BME280;7937;48.090;16.212;2023-04-15T00:02:53;96307.44;;;1.91;90.07
15674;BME280;7937;48.090;16.212;2023-04-15T00:06:00;96310.16;;;1.84;90.15
15674;BME280;7937;48.090;16.212;2023-04-15T00:09:02;96304.16;;;1.77;90.01
15674;BME280;7937;48.090;16.212;2023-04-15T00:12:06;96317.78;;;1.67;89.91
15674;BME280;7937;48.090;16.212;2023-04-15T00:15:09;96320.50;;;1.61;90.02
15674;BME280;7937;48.090;16.212;2023-04-15T00:18:13;96324.38;;;1.58;89.96
15674;BME280;7937;48.090;16.212;2023-04-15T00:21:15;96315.34;;;1.54;90.08
15674;BME280;7937;48.090;16.212;2023-04-15T00:24:18;96348.84;;;1.52;90.01
15674;BME280;7937;48.090;16.212;2023-04-15T00:27:20;96263.06;;;0.91;89.99
15674;BME280;7937;48.090;16.212;2023-04-15T00:30:22;96154.41;;;0.25;90.11
15674;BME280;7937;48.090;16.212;2023-04-15T00:33:29;96309.91;;;1.31;89.95
15674;BME280;7937;48.090;16.212;2023-04-15T00:36:32;96076.44;;;-0.48;90.08
15674;BME280;7937;48.090;16.212;2023-04-15T00:39:35;96083.66;;;-0.50;89.79
15674;BME280;7937;48.090;16.212;2023-04-15T00:42:38;96235.16;;;0.53;89.77
15674;BME280;7937;48.090;16.212;2023-04-15T00:45:43;96026.38;;;-0.90;89.66
15674;BME280;7937;48.090;16.212;2023-04-15T00:48:46;95845.00;;;-2.02;89.49
15674;BME280;7937;48.090;16.212;2023-04-15T00:51:48;95857.78;;;-1.87;89.56
15674;BME280;7937;48.090;16.212;2023-04-15T00:54:50;95856.78;;;-1.93;89.47
15674;BME280;7937;48.090;16.212;2023-04-15T00:57:53;96117.13;;;-0.27;89.91
15674;BME280;7937;48.090;16.212;2023-04-15T01:00:57;96185.75;;;0.07;89.81
15674;BME280;7937;48.090;16.212;2023-04-15T01:04:00;96000.19;;;-1.15;89.57
15674;BME280;7937;48.090;16.212;2023-04-15T01:07:03;96283.66;;;0.62;89.89
15674;BME280;7937;48.090;16.212;2023-04-15T01:10:06;95872.34;;;-2.11;89.20
15674;BME280;7937;48.090;16.212;2023-04-15T01:13:09;96164.16;;;-0.14;89.61
15674;BME280;7937;48.090;16.212;2023-04-15T01:16:14;96115.09;;;-0.57;89.75
15674;BME280;7937;48.090;16.212;2023-04-15T01:19:18;96197.63;;;-0.22;89.72
15674;BME280;7937;48.090;16.212;2023-04-15T01:22:23;96282.75;;;0.50;90.02
15674;BME280;7937;48.090;16.212;2023-04-15T01:25:31;95877.38;;;-2.16;89.47
15674;BME280;7937;48.090;16.212;2023-04-15T01:28:35;96361.25;;;0.95;89.98
15674;BME280;7937;48.090;16.212;2023-04-15T01:31:38;96239.88;;;0.13;89.97
15674;BME280;7937;48.090;16.212;2023-04-15T01:34:41;96362.06;;;0.95;90.08
15674;BME280;7937;48.090;16.212;2023-04-15T01:37:44;96383.84;;;0.96;89.85
15674;BME280;7937;48.090;16.212;2023-04-15T01:40:46;96296.84;;;0.49;90.29
15674;BME280;7937;48.090;16.212;2023-04-15T01:43:48;96261.56;;;0.27;90.24
15674;BME280;7937;48.090;16.212;2023-04-15T01:46:51;96322.13;;;0.68;90.28
15674;BME280;7937;48.090;16.212;2023-04-15T01:49:54;96371.28;;;1.05;90.48
15674;BME280;7937;48.090;16.212;2023-04-15T01:52:56;96299.84;;;0.59;90.07
15674;BME280;7937;48.090;16.212;2023-04-15T01:56:00;96346.38;;;0.89;90.18
15674;BME280;7937;48.090;16.212;2023-04-15T01:59:03;96151.66;;;-0.50;90.31
15674;BME280;7937;48.090;16.212;2023-04-15T02:02:05;96244.19;;;0.32;90.30
15674;BME280;7937;48.090;16.212;2023-04-15T02:05:08;96326.78;;;0.91;90.23
15674;BME280;7937;48.090;16.212;2023-04-15T02:08:10;96142.31;;;-0.33;90.11
15674;BME280;7937;48.090;16.212;2023-04-15T02:11:13;96106.34;;;-0.75;90.01
15674;BME280;7937;48.090;16.212;2023-04-15T02:14:18;96007.28;;;-1.28;89.89
15674;BME280;7937;48.090;16.212;2023-04-15T02:17:21;95921.22;;;-1.93;90.12
15674;BME280;7937;48.090;16.212;2023-04-15T02:20:24;96101.28;;;-0.70;90.14
15674;BME280;7937;48.090;16.212;2023-04-15T02:23:26;96185.75;;;-0.25;90.40
15674;BME280;7937;48.090;16.212;2023-04-15T02:26:28;96425.88;;;1.14;90.43
15674;BME280;7937;48.090;16.212;2023-04-15T02:29:33;96413.56;;;1.15;90.38
15674;BME280;7937;48.090;16.212;2023-04-15T02:32:36;96265.13;;;0.32;90.58
15674;BME280;7937;48.090;16.212;2023-04-15T02:35:39;96164.06;;;-0.32;90.26
15674;BME280;7937;48.090;16.212;2023-04-15T02:38:45;96169.50;;;-0.34;90.39
15674;BME280;7937;48.090;16.212;2023-04-15T02:41:49;96360.66;;;0.93;90.37
15674;BME280;7937;48.090;16.212;2023-04-15T02:44:55;96170.94;;;-0.44;90.20
15674;BME280;7937;48.090;16.212;2023-04-15T02:48:04;96361.09;;;0.90;90.57
15674;BME280;7937;48.090;16.212;2023-04-15T02:51:18;96215.59;;;-0.01;90.52
15674;BME280;7937;48.090;16.212;2023-04-15T02:54:21;96239.75;;;0.01;90.53
15674;BME280;7937;48.090;16.212;2023-04-15T02:57:24;96206.22;;;-0.15;90.32
15674;BME280;7937;48.090;16.212;2023-04-15T03:00:29;96241.19;;;-0.03;90.57
15674;BME280;7937;48.090;16.212;2023-04-15T03:03:31;96340.41;;;0.50;90.31
15674;BME280;7937;48.090;16.212;2023-04-15T03:06:34;96128.09;;;-0.82;90.25
15674;BME280;7937;48.090;16.212;2023-04-15T03:09:47;95915.91;;;-2.25;90.32
15674;BME280;7937;48.090;16.212;2023-04-15T03:12:49;95973.59;;;-1.82;90.35
15674;BME280;7937;48.090;16.212;2023-04-15T03:15:55;96348.50;;;0.42;90.91
15674;BME280;7937;48.090;16.212;2023-04-15T03:18:59;96188.63;;;-0.40;90.67
15674;BME280;7937;48.090;16.212;2023-04-15T03:22:03;95973.56;;;-1.75;90.66
15674;BME280;7937;48.090;16.212;2023-04-15T03:25:06;96137.03;;;-0.58;90.62
15674;BME280;7937;48.090;16.212;2023-04-15T03:28:09;95933.31;;;-2.05;90.64
15674;BME280;7937;48.090;16.212;2023-04-15T03:31:11;95933.47;;;-1.94;90.32
15674;BME280;7937;48.090;16.212;2023-04-15T03:34:14;96166.75;;;-0.45;90.96
15674;BME280;7937;48.090;16.212;2023-04-15T03:37:17;96309.25;;;0.35;90.75
15674;BME280;7937;48.090;16.212;2023-04-15T03:40:31;96424.00;;;1.21;91.08
15674;BME280;7937;48.090;16.212;2023-04-15T03:43:43;95911.66;;;-2.13;90.28
15674;BME280;7937;48.090;16.212;2023-04-15T03:46:46;96196.69;;;-0.41;90.62
15674;BME280;7937;48.090;16.212;2023-04-15T03:49:49;96132.47;;;-0.69;90.70
15674;BME280;7937;48.090;16.212;2023-04-15T03:52:51;96134.53;;;-0.77;90.88
15674;BME280;7937;48.090;16.212;2023-04-15T03:55:54;96228.91;;;-0.03;91.10
15674;BME280;7937;48.090;16.212;2023-04-15T03:58:57;96183.22;;;-0.45;90.81
15674;BME280;7937;48.090;16.212;2023-04-15T04:02:02;96273.69;;;0.14;90.72
15674;BME280;7937;48.090;16.212;2023-04-15T04:05:08;96290.94;;;0.35;91.02
15674;BME280;7937;48.090;16.212;2023-04-15T04:08:13;96435.25;;;1.28;91.33
15674;BME280;7937;48.090;16.212;2023-04-15T04:11:17;96053.50;;;-1.29;91.10
15674;BME280;7937;48.090;16.212;2023-04-15T04:14:19;96007.41;;;-1.55;90.74
15674;BME280;7937;48.090;16.212;2023-04-15T04:17:22;96130.84;;;-0.70;91.07
15674;BME280;7937;48.090;16.212;2023-04-15T04:20:25;96476.38;;;1.35;91.50
15674;BME280;7937;48.090;16.212;2023-04-15T04:23:27;96420.63;;;1.14;91.43
15674;BME280;7937;48.090;16.212;2023-04-15T04:26:30;96251.44;;;0.05;91.00
15674;BME280;7937;48.090;16.212;2023-04-15T04:29:35;96026.06;;;-1.45;91.15
15674;BME280;7937;48.090;16.212;2023-04-15T04:32:37;96214.69;;;-0.20;91.25
15674;BME280;7937;48.090;16.212;2023-04-15T04:35:40;96458.16;;;1.40;91.50
15674;BME280;7937;48.090;16.212;2023-04-15T04:38:44;96133.72;;;-0.78;91.23
15674;BME280;7937;48.090;16.212;2023-04-15T04:41:47;96234.19;;;-0.09;91.39
15674;BME280;7937;48.090;16.212;2023-04-15T04:44:49;96167.69;;;-0.71;91.12
15674;BME280;7937;48.090;16.212;2023-04-15T04:47:53;96473.84;;;1.46;91.72
15674;BME280;7937;48.090;16.212;2023-04-15T04:50:56;96390.28;;;1.00;91.28
15674;BME280;7937;48.090;16.212;2023-04-15T04:53:58;96205.97;;;-0.39;91.41
15674;BME280;7937;48.090;16.212;2023-04-15T04:57:09;96255.88;;;-0.02;91.13
15674;BME280;7937;48.090;16.212;2023-04-15T05:00:17;95971.91;;;-1.69;91.14
15674;BME280;7937;48.090;16.212;2023-04-15T05:03:23;96298.78;;;0.35;91.34
15674;BME280;7937;48.090;16.212;2023-04-15T05:06:25;96508.09;;;1.58;91.17
15674;BME280;7937;48.090;16.212;2023-04-15T05:09:28;96441.47;;;1.34;91.45
15674;BME280;7937;48.090;16.212;2023-04-15T05:12:33;96232.88;;;0.07;91.38
15674;BME280;7937;48.090;16.212;2023-04-15T05:15:36;96515.84;;;1.71;91.56
15674;BME280;7937;48.090;16.212;2023-04-15T05:18:40;96262.13;;;0.29;91.49
15674;BME280;7937;48.090;16.212;2023-04-15T05:21:43;96316.13;;;0.61;91.21
15674;BME280;7937;48.090;16.212;2023-04-15T05:24:45;96252.13;;;-0.13;91.01
15674;BME280;7937;48.090;16.212;2023-04-15T05:27:48;96153.47;;;-0.50;91.16
15674;BME280;7937;48.090;16.212;2023-04-15T05:30:55;96335.50;;;0.60;91.47
15674;BME280;7937;48.090;16.212;2023-04-15T05:33:57;96339.56;;;0.81;91.53
15674;BME280;7937;48.090;16.212;2023-04-15T05:37:00;96501.81;;;1.84;91.49
15674;BME280;7937;48.090;16.212;2023-04-15T05:40:02;96240.00;;;-0.07;91.45
15674;BME280;7937;48.090;16.212;2023-04-15T05:43:05;96128.22;;;-0.63;91.66
15674;BME280;7937;48.090;16.212;2023-04-15T05:46:07;96349.81;;;0.89;91.49
15674;BME280;7937;48.090;16.212;2023-04-15T05:49:10;96420.47;;;1.34;91.67
15674;BME280;7937;48.090;16.212;2023-04-15T05:52:15;96303.88;;;0.55;91.60
15674;BME280;7937;48.090;16.212;2023-04-15T05:55:20;96406.81;;;1.25;91.44
15674;BME280;7937;48.090;16.212;2023-04-15T05:58:23;96230.94;;;0.27;91.53
15674;BME280;7937;48.090;16.212;2023-04-15T06:01:25;96516.69;;;2.15;91.65
15674;BME280;7937;48.090;16.212;2023-04-15T06:04:27;96056.66;;;-0.75;90.80
15674;BME280;7937;48.090;16.212;2023-04-15T06:07:30;96368.09;;;1.21;91.63
15674;BME280;7937;48.090;16.212;2023-04-15T06:10:34;96262.06;;;0.42;91.80
15674;BME280;7937;48.090;16.212;2023-04-15T06:13:37;96089.41;;;-0.66;91.36
15674;BME280;7937;48.090;16.212;2023-04-15T06:16:39;96521.31;;;2.38;91.90
15674;BME280;7937;48.090;16.212;2023-04-15T06:19:42;96527.25;;;2.52;91.86
15674;BME280;7937;48.090;16.212;2023-04-15T06:22:44;96528.75;;;2.59;92.03
15674;BME280;7937;48.090;16.212;2023-04-15T06:25:46;96512.97;;;2.59;91.88
15674;BME280;7937;48.090;16.212;2023-04-15T06:28:48;96530.34;;;2.79;91.79
15674;BME280;7937;48.090;16.212;2023-04-15T06:31:52;96532.22;;;2.90;92.08
15674;BME280;7937;48.090;16.212;2023-04-15T06:34:54;96526.31;;;2.95;92.11
15674;BME280;7937;48.090;16.212;2023-04-15T06:37:56;96505.00;;;2.84;91.93
15674;BME280;7937;48.090;16.212;2023-04-15T06:40:58;96544.72;;;3.13;91.96
15674;BME280;7937;48.090;16.212;2023-04-15T06:44:04;96541.53;;;3.23;91.92
15674;BME280;7937;48.090;16.212;2023-04-15T06:47:09;96549.69;;;3.33;91.96
15674;BME280;7937;48.090;16.212;2023-04-15T06:50:14;96542.88;;;3.44;91.94
15674;BME280;7937;48.090;16.212;2023-04-15T06:53:19;96550.47;;;3.52;91.82
15674;BME280;7937;48.090;16.212;2023-04-15T06:56:23;96544.16;;;3.53;91.88
15674;BME280;7937;48.090;16.212;2023-04-15T06:59:26;96550.47;;;3.63;91.84
15674;BME280;7937;48.090;16.212;2023-04-15T07:02:33;96565.53;;;3.75;91.70
15674;BME280;7937;48.090;16.212;2023-04-15T07:05:38;96521.19;;;3.60;91.86
15674;BME280;7937;48.090;16.212;2023-04-15T07:08:49;96567.06;;;3.94;92.07
15674;BME280;7937;48.090;16.212;2023-04-15T07:11:56;96561.06;;;3.99;91.69
15674;BME280;7937;48.090;16.212;2023-04-15T07:15:04;96560.63;;;4.02;91.75
15674;BME280;7937;48.090;16.212;2023-04-15T07:18:14;96566.03;;;4.07;91.42
15674;BME280;7937;48.090;16.212;2023-04-15T07:21:19;96564.31;;;4.12;91.34
15674;BME280;7937;48.090;16.212;2023-04-15T07:24:24;96570.16;;;4.14;91.05
15674;BME280;7937;48.090;16.212;2023-04-15T07:27:35;96569.50;;;4.19;91.12
15674;BME280;7937;48.090;16.212;2023-04-15T07:30:55;96573.84;;;4.25;91.07
15674;BME280;7937;48.090;16.212;2023-04-15T07:34:00;96577.06;;;4.39;91.19
15674;BME280;7937;48.090;16.212;2023-04-15T07:37:09;96585.66;;;4.46;91.10
15674;BME280;7937;48.090;16.212;2023-04-15T07:40:26;96580.94;;;4.48;90.77
15674;BME280;7937;48.090;16.212;2023-04-15T07:43:52;96589.88;;;4.47;90.71
15674;BME280;7937;48.090;16.212;2023-04-15T07:47:27;96587.03;;;4.49;90.65
15674;BME280;7937;48.090;16.212;2023-04-15T07:50:51;96595.06;;;4.54;90.60
15674;BME280;7937;48.090;16.212;2023-04-15T07:54:08;96591.03;;;4.51;90.43
15674;BME280;7937;48.090;16.212;2023-04-15T07:57:34;96560.28;;;4.33;90.29
15674;BME280;7937;48.090;16.212;2023-04-15T08:01:01;96602.38;;;4.52;90.32
15674;BME280;7937;48.090;16.212;2023-04-15T08:04:24;96606.63;;;4.53;90.40
15674;BME280;7937;48.090;16.212;2023-04-15T08:07:55;96609.03;;;4.54;90.41
15674;BME280;7937;48.090;16.212;2023-04-15T08:11:24;96619.25;;;4.51;90.41
15674;BME280;7937;48.090;16.212;2023-04-15T08:14:42;96615.56;;;4.52;90.28
15674;BME280;7937;48.090;16.212;2023-04-15T08:17:56;96600.09;;;4.44;90.47
15674;BME280;7937;48.090;16.212;2023-04-15T08:20:58;96608.44;;;4.52;90.36
15674;BME280;7937;48.090;16.212;2023-04-15T08:24:00;96592.41;;;4.42;90.49
15674;BME280;7937;48.090;16.212;2023-04-15T08:27:04;96625.31;;;4.63;90.36
15674;BME280;7937;48.090;16.212;2023-04-15T08:30:07;96623.59;;;4.69;90.37
15674;BME280;7937;48.090;16.212;2023-04-15T08:33:09;96628.66;;;4.70;90.22
15674;BME280;7937;48.090;16.212;2023-04-15T08:36:11;96623.38;;;4.70;90.17
15674;BME280;7937;48.090;16.212;2023-04-15T08:39:14;96609.16;;;4.59;90.08
15674;BME280;7937;48.090;16.212;2023-04-15T08:42:18;96631.03;;;4.72;90.06
15674;BME280;7937;48.090;16.212;2023-04-15T08:45:22;96637.81;;;4.79;90.18
15674;BME280;7937;48.090;16.212;2023-04-15T08:48:28;96644.25;;;4.83;90.16
15674;BME280;7937;48.090;16.212;2023-04-15T08:51:31;96639.78;;;4.84;89.98
15674;BME280;7937;48.090;16.212;2023-04-15T08:54:34;96639.78;;;4.84;89.79
15674;BME280;7937;48.090;16.212;2023-04-15T08:57:37;96647.78;;;4.89;89.89
15674;BME280;7937;48.090;16.212;2023-04-15T09:00:40;96643.66;;;4.93;90.02
15674;BME280;7937;48.090;16.212;2023-04-15T09:03:42;96631.63;;;4.85;89.85
15674;BME280;7937;48.090;16.212;2023-04-15T09:06:45;96646.72;;;5.02;89.81
15674;BME280;7937;48.090;16.212;2023-04-15T09:09:48;96646.94;;;5.12;90.08
15674;BME280;7937;48.090;16.212;2023-04-15T09:12:50;96653.38;;;5.16;89.78
15674;BME280;7937;48.090;16.212;2023-04-15T09:15:52;96650.28;;;5.19;89.48
15674;BME280;7937;48.090;16.212;2023-04-15T09:18:54;96650.34;;;5.36;89.68
15674;BME280;7937;48.090;16.212;2023-04-15T09:21:58;96651.59;;;5.45;89.44
15674;BME280;7937;48.090;16.212;2023-04-15T09:25:00;96665.94;;;5.49;88.82
15674;BME280;7937;48.090;16.212;2023-04-15T09:28:02;96615.81;;;5.26;88.32
15674;BME280;7937;48.090;16.212;2023-04-15T09:31:05;96649.03;;;5.50;88.54
15674;BME280;7937;48.090;16.212;2023-04-15T09:34:07;96661.75;;;5.65;88.82
15674;BME280;7937;48.090;16.212;2023-04-15T09:37:09;96667.81;;;5.77;88.67
15674;BME280;7937;48.090;16.212;2023-04-15T09:40:12;96674.44;;;5.80;88.24
15674;BME280;7937;48.090;16.212;2023-04-15T09:43:14;96640.28;;;5.61;88.48
15674;BME280;7937;48.090;16.212;2023-04-15T09:46:18;96670.84;;;5.86;88.24
15674;BME280;7937;48.090;16.212;2023-04-15T09:49:20;96676.13;;;5.86;88.01
15674;BME280;7937;48.090;16.212;2023-04-15T09:52:22;96680.69;;;5.74;87.04
15674;BME280;7937;48.090;16.212;2023-04-15T09:55:24;96682.19;;;5.69;87.47
15674;BME280;7937;48.090;16.212;2023-04-15T09:58:29;96679.28;;;5.71;87.73
15674;BME280;7937;48.090;16.212;2023-04-15T10:01:32;96654.56;;;5.49;87.47
15674;BME280;7937;48.090;16.212;2023-04-15T10:04:35;96684.81;;;5.69;87.70
15674;BME280;7937;48.090;16.212;2023-04-15T10:07:41;96682.09;;;5.64;87.45
15674;BME280;7937;48.090;16.212;2023-04-15T10:10:44;96664.34;;;5.48;87.49
15674;BME280;7937;48.090;16.212;2023-04-15T10:13:48;96691.50;;;5.60;87.24
15674;BME280;7937;48.090;16.212;2023-04-15T10:16:51;96688.97;;;5.65;87.63
15674;BME280;7937;48.090;16.212;2023-04-15T10:19:59;96700.22;;;5.73;87.32
15674;BME280;7937;48.090;16.212;2023-04-15T10:23:02;96692.38;;;5.78;87.30
15674;BME280;7937;48.090;16.212;2023-04-15T10:26:05;96694.78;;;5.79;86.98
15674;BME280;7937;48.090;16.212;2023-04-15T10:29:08;96704.09;;;5.82;86.82
15674;BME280;7937;48.090;16.212;2023-04-15T10:32:11;96704.69;;;5.72;86.22
15674;BME280;7937;48.090;16.212;2023-04-15T10:35:15;96685.91;;;5.57;86.67
15674;BME280;7937;48.090;16.212;2023-04-15T10:41:34;96714.13;;;5.68;87.06
15674;BME280;7937;48.090;16.212;2023-04-15T10:44:41;96721.25;;;5.67;87.41
15674;BME280;7937;48.090;16.212;2023-04-15T10:47:44;96690.59;;;5.55;87.18
15674;BME280;7937;48.090;16.212;2023-04-15T10:50:56;96719.88;;;5.65;86.27
15674;BME280;7937;48.090;16.212;2023-04-15T10:53:59;96712.09;;;5.58;85.94
15674;BME280;7937;48.090;16.212;2023-04-15T11:00:09;96734.75;;;5.94;86.16
15674;BME280;7937;48.090;16.212;2023-04-15T11:03:14;96716.91;;;6.02;86.26
15674;BME280;7937;48.090;16.212;2023-04-15T11:06:16;96727.53;;;6.18;86.58
15674;BME280;7937;48.090;16.212;2023-04-15T11:09:31;96713.78;;;6.05;85.54
15674;BME280;7937;48.090;16.212;2023-04-15T11:12:40;96729.28;;;6.13;83.20
15674;BME280;7937;48.090;16.212;2023-04-15T11:15:47;96732.81;;;6.18;80.79
15674;BME280;7937;48.090;16.212;2023-04-15T11:18:53;96742.16;;;6.09;81.59
15674;BME280;7937;48.090;16.212;2023-04-15T11:21:56;96716.63;;;6.15;83.48
15674;BME280;7937;48.090;16.212;2023-04-15T11:24:58;96739.66;;;6.31;84.10
15674;BME280;7937;48.090;16.212;2023-04-15T11:28:01;96739.69;;;6.48;84.16
15674;BME280;7937;48.090;16.212;2023-04-15T11:31:12;96747.25;;;6.73;83.90
15674;BME280;7937;48.090;16.212;2023-04-15T11:34:21;96746.94;;;6.86;82.58
15674;BME280;7937;48.090;16.212;2023-04-15T11:37:28;96747.25;;;6.73;79.22
15674;BME280;7937;48.090;16.212;2023-04-15T11:40:31;96748.53;;;6.70;80.70
15674;BME280;7937;48.090;16.212;2023-04-15T11:43:36;96723.72;;;6.60;81.63
15674;BME280;7937;48.090;16.212;2023-04-15T11:46:39;96704.78;;;6.34;79.86
15674;BME280;7937;48.090;16.212;2023-04-15T11:49:42;96723.31;;;6.34;83.08
15674;BME280;7937;48.090;16.212;2023-04-15T11:52:59;96757.34;;;6.59;82.53
15674;BME280;7937;48.090;16.212;2023-04-15T11:56:02;96754.06;;;6.69;82.48
15674;BME280;7937;48.090;16.212;2023-04-15T11:59:04;96766.28;;;6.70;82.59
15674;BME280;7937;48.090;16.212;2023-04-15T12:02:12;96716.66;;;6.32;82.52
15674;BME280;7937;48.090;16.212;2023-04-15T12:05:15;96750.56;;;6.35;79.59
15674;BME280;7937;48.090;16.212;2023-04-15T12:08:17;96773.81;;;6.33;82.15
15674;BME280;7937;48.090;16.212;2023-04-15T12:11:21;96744.59;;;6.11;76.86
15674;BME280;7937;48.090;16.212;2023-04-15T12:14:32;96776.19;;;6.46;78.83
15674;BME280;7937;48.090;16.212;2023-04-15T12:17:34;96770.66;;;6.64;78.72
15674;BME280;7937;48.090;16.212;2023-04-15T12:20:52;96785.75;;;6.81;77.79
15674;BME280;7937;48.090;16.212;2023-04-15T12:23:56;96781.19;;;6.76;79.91
15674;BME280;7937;48.090;16.212;2023-04-15T12:27:03;96784.31;;;6.73;78.62
15674;BME280;7937;48.090;16.212;2023-04-15T12:30:06;96782.53;;;6.79;77.27
15674;BME280;7937;48.090;16.212;2023-04-15T12:33:08;96786.56;;;6.81;75.69
15674;BME280;7937;48.090;16.212;2023-04-15T12:36:11;96787.63;;;6.80;74.57
15674;BME280;7937;48.090;16.212;2023-04-15T12:39:14;96798.66;;;6.77;72.95
15674;BME280;7937;48.090;16.212;2023-04-15T12:42:17;96795.38;;;6.70;74.40
15674;BME280;7937;48.090;16.212;2023-04-15T12:45:19;96797.63;;;6.78;75.20
15674;BME280;7937;48.090;16.212;2023-04-15T12:48:22;96787.38;;;6.98;75.00
15674;BME280;7937;48.090;16.212;2023-04-15T12:51:24;96788.66;;;7.13;74.38
15674;BME280;7937;48.090;16.212;2023-04-15T12:54:28;96796.59;;;7.13;74.89
15674;BME280;7937;48.090;16.212;2023-04-15T12:57:30;96796.75;;;7.23;72.50
15674;BME280;7937;48.090;16.212;2023-04-15T13:03:54;96789.94;;;7.27;75.35
15674;BME280;7937;48.090;16.212;2023-04-15T13:06:57;96800.03;;;7.47;73.65
15674;BME280;7937;48.090;16.212;2023-04-15T13:09:59;96809.88;;;7.52;70.28
15674;BME280;7937;48.090;16.212;2023-04-15T13:13:02;96809.41;;;7.55;72.76
15674;BME280;7937;48.090;16.212;2023-04-15T13:16:04;96813.44;;;7.40;71.33
15674;BME280;7937;48.090;16.212;2023-04-15T13:19:07;96814.72;;;7.38;70.91
15674;BME280;7937;48.090;16.212;2023-04-15T13:22:09;96787.38;;;7.15;74.02
15674;BME280;7937;48.090;16.212;2023-04-15T13:25:12;96812.56;;;7.01;71.50
15674;BME280;7937;48.090;16.212;2023-04-15T13:28:14;96812.63;;;6.89;73.48
15674;BME280;7937;48.090;16.212;2023-04-15T13:31:16;96818.25;;;6.76;72.97
15674;BME280;7937;48.090;16.212;2023-04-15T13:34:18;96820.34;;;6.91;74.31
15674;BME280;7937;48.090;16.212;2023-04-15T13:37:25;96819.81;;;7.06;73.93
15674;BME280;7937;48.090;16.212;2023-04-15T13:40:29;96819.09;;;7.10;73.33
15674;BME280;7937;48.090;16.212;2023-04-15T13:43:31;96793.97;;;6.96;71.28
15674;BME280;7937;48.090;16.212;2023-04-15T13:46:35;96825.50;;;7.14;71.93
15674;BME280;7937;48.090;16.212;2023-04-15T13:49:38;96816.81;;;7.19;72.61
15674;BME280;7937;48.090;16.212;2023-04-15T13:52:40;96830.41;;;7.39;72.10
15674;BME280;7937;48.090;16.212;2023-04-15T13:55:42;96824.38;;;7.44;70.73
15674;BME280;7937;48.090;16.212;2023-04-15T13:58:44;96835.50;;;7.63;71.88
15674;BME280;7937;48.090;16.212;2023-04-15T14:01:46;96825.22;;;7.66;70.89
15674;BME280;7937;48.090;16.212;2023-04-15T14:04:49;96830.09;;;7.74;66.82
15674;BME280;7937;48.090;16.212;2023-04-15T14:07:52;96829.06;;;7.75;66.63
15674;BME280;7937;48.090;16.212;2023-04-15T14:10:54;96837.13;;;7.64;68.92
15674;BME280;7937;48.090;16.212;2023-04-15T14:13:56;96813.53;;;7.45;69.21
15674;BME280;7937;48.090;16.212;2023-04-15T14:16:58;96839.91;;;7.74;69.26
15674;BME280;7937;48.090;16.212;2023-04-15T14:20:00;96828.78;;;7.55;67.50
15674;BME280;7937;48.090;16.212;2023-04-15T14:23:03;96841.88;;;7.45;70.42
15674;BME280;7937;48.090;16.212;2023-04-15T14:26:05;96860.97;;;7.47;69.76
15674;BME280;7937;48.090;16.212;2023-04-15T14:29:07;96859.06;;;7.26;70.45
15674;BME280;7937;48.090;16.212;2023-04-15T14:32:09;96868.06;;;7.24;71.49
15674;BME280;7937;48.090;16.212;2023-04-15T14:35:13;96871.25;;;7.27;72.64
15674;BME280;7937;48.090;16.212;2023-04-15T14:38:15;96874.06;;;7.20;72.50
15674;BME280;7937;48.090;16.212;2023-04-15T14:41:17;96875.97;;;7.08;72.41
15674;BME280;7937;48.090;16.212;2023-04-15T14:44:19;96887.84;;;7.05;72.95
15674;BME280;7937;48.090;16.212;2023-04-15T14:47:22;96893.63;;;7.02;70.87
15674;BME280;7937;48.090;16.212;2023-04-15T14:50:25;96885.66;;;7.02;71.94
15674;BME280;7937;48.090;16.212;2023-04-15T14:53:27;96891.59;;;7.09;71.02
15674;BME280;7937;48.090;16.212;2023-04-15T14:56:29;96886.72;;;7.01;70.11
15674;BME280;7937;48.090;16.212;2023-04-15T14:59:32;96897.88;;;7.03;70.70
15674;BME280;7937;48.090;16.212;2023-04-15T15:02:34;96896.25;;;7.02;70.92
15674;BME280;7937;48.090;16.212;2023-04-15T15:05:42;96900.84;;;7.07;71.51
15674;BME280;7937;48.090;16.212;2023-04-15T15:08:45;96919.47;;;7.12;71.20
15674;BME280;7937;48.090;16.212;2023-04-15T15:11:48;96918.59;;;7.06;70.55
15674;BME280;7937;48.090;16.212;2023-04-15T15:14:51;96915.03;;;7.01;71.14
15674;BME280;7937;48.090;16.212;2023-04-15T15:17:53;96910.47;;;6.96;70.22
15674;BME280;7937;48.090;16.212;2023-04-15T15:20:55;96929.88;;;7.02;70.65
15674;BME280;7937;48.090;16.212;2023-04-15T15:23:57;96924.22;;;7.10;71.23
15674;BME280;7937;48.090;16.212;2023-04-15T15:26:59;96920.94;;;7.19;69.54
15674;BME280;7937;48.090;16.212;2023-04-15T15:30:03;96925.91;;;7.16;69.70
15674;BME280;7937;48.090;16.212;2023-04-15T15:33:05;96921.38;;;7.00;69.78
15674;BME280;7937;48.090;16.212;2023-04-15T15:36:08;96936.84;;;6.91;70.37
15674;BME280;7937;48.090;16.212;2023-04-15T15:39:11;96943.75;;;6.92;70.65
15674;BME280;7937;48.090;16.212;2023-04-15T15:42:13;96946.38;;;6.92;71.04
15674;BME280;7937;48.090;16.212;2023-04-15T15:45:16;96945.44;;;6.98;71.22
15674;BME280;7937;48.090;16.212;2023-04-15T15:48:18;96942.66;;;7.05;71.10
15674;BME280;7937;48.090;16.212;2023-04-15T15:51:20;96911.31;;;6.85;71.25
15674;BME280;7937;48.090;16.212;2023-04-15T15:54:23;96954.78;;;6.89;71.01
15674;BME280;7937;48.090;16.212;2023-04-15T15:57:27;96954.94;;;6.82;73.03
15674;BME280;7937;48.090;16.212;2023-04-15T16:00:31;96958.38;;;6.83;73.28
15674;BME280;7937;48.090;16.212;2023-04-15T16:03:33;96947.94;;;6.76;71.87
15674;BME280;7937;48.090;16.212;2023-04-15T16:06:35;96966.09;;;6.84;72.33
15674;BME280;7937;48.090;16.212;2023-04-15T16:09:37;96973.31;;;6.89;72.49
15674;BME280;7937;48.090;16.212;2023-04-15T16:12:42;96965.69;;;6.76;71.93
15674;BME280;7937;48.090;16.212;2023-04-15T16:15:44;96970.72;;;6.77;73.01
15674;BME280;7937;48.090;16.212;2023-04-15T16:18:46;96939.25;;;6.52;73.61
15674;BME280;7937;48.090;16.212;2023-04-15T16:21:48;96975.66;;;6.73;71.21
15674;BME280;7937;48.090;16.212;2023-04-15T16:24:51;96971.78;;;6.64;72.91
15674;BME280;7937;48.090;16.212;2023-04-15T16:27:54;96979.50;;;6.54;72.14
15674;BME280;7937;48.090;16.212;2023-04-15T16:31:12;96955.03;;;6.35;72.95
15674;BME280;7937;48.090;16.212;2023-04-15T16:34:14;96978.59;;;6.49;72.95
15674;BME280;7937;48.090;16.212;2023-04-15T16:37:16;96980.69;;;6.46;72.85
15674;BME280;7937;48.090;16.212;2023-04-15T16:40:18;96992.97;;;6.53;73.22